createdAt,value
2023-02-11T00:01:06.988Z,34.40
2023-02-11T00:03:33.931Z,29.80
2023-02-11T00:06:01.879Z,24.33
2023-02-11T00:08:28.856Z,27.30
2023-02-11T00:10:56.917Z,23.30
2023-02-11T00:13:24.792Z,21.73
2023-02-11T00:15:51.620Z,30.90
2023-02-11T00:18:18.417Z,23.05
2023-02-11T00:20:44.983Z,33.40
2023-02-11T00:23:11.870Z,30.17
2023-02-11T00:25:40.787Z,28.27
2023-02-11T00:28:07.715Z,22.67
2023-02-11T00:30:34.808Z,24.02
2023-02-11T00:33:01.757Z,23.77
2023-02-11T00:35:29.540Z,22.50
2023-02-11T00:37:56.615Z,25.08
2023-02-11T00:40:24.134Z,22.83
2023-02-11T00:42:51.044Z,20.83
2023-02-11T00:45:17.740Z,27.25
2023-02-11T00:47:45.698Z,27.45
2023-02-11T00:50:12.660Z,23.08
2023-02-11T00:52:39.261Z,18.08
2023-02-11T00:55:06.280Z,21.42
2023-02-11T00:57:32.879Z,24.55
2023-02-11T00:59:59.410Z,21.83
2023-02-11T01:02:26.146Z,24.40
2023-02-11T01:04:52.709Z,22.30
2023-02-11T01:07:19.613Z,27.38
2023-02-11T01:09:46.147Z,20.90
2023-02-11T01:12:12.752Z,17.00
2023-02-11T01:14:40.896Z,21.88
2023-02-11T01:17:07.573Z,21.05
2023-02-11T01:19:34.183Z,24.90
2023-02-11T01:22:00.798Z,12.90
2023-02-11T01:24:27.395Z,22.00
2023-02-11T01:26:54.336Z,19.13
2023-02-11T01:29:24.353Z,25.58
2023-02-11T01:31:54.650Z,23.63
2023-02-11T01:34:21.264Z,20.20
2023-02-11T01:36:47.846Z,18.20
2023-02-11T01:39:14.512Z,21.73
2023-02-11T01:41:41.132Z,19.45
2023-02-11T01:44:22.921Z,28.42
2023-02-11T01:46:49.926Z,16.73
2023-02-11T01:49:25.661Z,21.02
2023-02-11T01:51:58.679Z,12.85
2023-02-11T01:54:50.213Z,17.73
2023-02-11T01:57:24.902Z,15.73
2023-02-11T02:00:15.732Z,15.75
2023-02-11T02:02:58.614Z,14.20
2023-02-11T02:05:48.918Z,16.52
2023-02-11T02:08:25.638Z,23.33
2023-02-11T02:10:56.354Z,22.63
2023-02-11T02:13:24.207Z,16.13
2023-02-11T02:15:54.908Z,18.98
2023-02-11T02:18:36.326Z,17.30
2023-02-11T02:21:11.922Z,16.67
2023-02-11T02:24:15.942Z,19.83
2023-02-11T02:27:10.118Z,16.15
2023-02-11T02:29:55.225Z,12.55
2023-02-11T02:32:24.585Z,11.37
2023-02-11T02:34:58.088Z,15.18
2023-02-11T02:37:34.713Z,18.90
2023-02-11T02:40:07.937Z,13.82
2023-02-11T02:42:35.277Z,23.05
2023-02-11T02:45:02.021Z,15.30
2023-02-11T02:47:28.779Z,10.38
2023-02-11T02:49:55.283Z,16.88
2023-02-11T02:52:39.180Z,16.35
2023-02-11T02:55:20.462Z,17.35
2023-02-11T02:58:04.589Z,17.20
2023-02-11T03:00:54.319Z,16.40
2023-02-11T03:03:30.376Z,16.33
2023-02-11T03:06:04.162Z,20.92
2023-02-11T03:08:40.469Z,21.27
2023-02-11T03:11:09.390Z,23.35
2023-02-11T03:13:39.233Z,16.63
2023-02-11T03:16:27.021Z,17.80
2023-02-11T03:19:01.751Z,18.08
2023-02-11T03:21:33.157Z,16.33
2023-02-11T03:24:05.776Z,23.45
2023-02-11T03:26:46.758Z,20.70
2023-02-11T03:29:55.321Z,17.63
2023-02-11T03:32:31.841Z,23.80
2023-02-11T03:35:03.898Z,19.42
2023-02-11T03:37:43.403Z,17.52
2023-02-11T03:40:11.737Z,24.70
2023-02-11T03:42:44.444Z,21.60
2023-02-11T03:45:17.076Z,23.70
2023-02-11T03:47:49.209Z,15.88
2023-02-11T03:50:17.195Z,24.77
2023-02-11T03:52:44.129Z,18.17
2023-02-11T03:55:18.356Z,19.10
2023-02-11T03:57:45.348Z,20.65
2023-02-11T04:00:12.696Z,30.90
2023-02-11T04:02:40.708Z,28.83
2023-02-11T04:05:09.951Z,18.27
2023-02-11T04:07:36.481Z,19.02
2023-02-11T04:10:03.471Z,18.17
2023-02-11T04:12:30.238Z,17.58
2023-02-11T04:14:56.732Z,22.38
2023-02-11T04:17:23.629Z,19.88
2023-02-11T04:19:50.258Z,20.50
2023-02-11T04:22:17.014Z,19.52
2023-02-11T04:24:44.056Z,17.63
2023-02-11T04:27:10.954Z,31.67
2023-02-11T04:29:37.738Z,19.63
2023-02-11T04:32:04.464Z,29.73
2023-02-11T04:34:31.165Z,21.33
2023-02-11T04:36:57.707Z,21.55
2023-02-11T04:39:24.315Z,15.52
2023-02-11T04:41:50.832Z,21.83
2023-02-11T04:44:17.440Z,24.08
2023-02-11T04:46:43.997Z,18.05
2023-02-11T04:49:15.568Z,19.13
2023-02-11T04:51:42.751Z,19.80
2023-02-11T04:54:09.324Z,18.92
2023-02-11T04:56:35.910Z,22.80
2023-02-11T04:59:03.542Z,25.13
2023-02-11T05:01:30.308Z,16.83
2023-02-11T05:03:57.183Z,24.33
2023-02-11T05:06:23.787Z,14.95
2023-02-11T05:08:50.512Z,20.70
2023-02-11T05:11:20.016Z,18.33
2023-02-11T05:13:47.333Z,27.00
2023-02-11T05:16:15.327Z,26.27
2023-02-11T05:18:43.765Z,23.15
2023-02-11T05:21:13.280Z,25.92
2023-02-11T05:23:40.482Z,21.75
2023-02-11T05:26:07.096Z,27.52
2023-02-11T05:28:33.819Z,18.67
2023-02-11T05:31:00.959Z,20.98
2023-02-11T05:33:27.793Z,17.35
2023-02-11T05:36:04.269Z,20.13
2023-02-11T05:38:30.911Z,21.25
2023-02-11T05:40:57.581Z,30.00
2023-02-11T05:43:24.214Z,20.67
2023-02-11T05:45:51.146Z,29.27
2023-02-11T05:48:18.041Z,22.98
2023-02-11T05:50:45.343Z,22.20
2023-02-11T05:53:12.485Z,25.58
2023-02-11T05:55:39.312Z,27.42
2023-02-11T05:58:07.895Z,21.70
2023-02-11T06:00:34.919Z,21.63
2023-02-11T06:03:01.874Z,20.00
2023-02-11T06:05:28.766Z,20.30
2023-02-11T06:07:55.965Z,24.02
2023-02-11T06:10:22.706Z,21.20
2023-02-11T06:12:49.384Z,22.92
2023-02-11T06:15:15.977Z,24.40
2023-02-11T06:17:42.526Z,26.48
2023-02-11T06:20:10.458Z,18.00
2023-02-11T06:22:37.900Z,20.77
2023-02-11T06:25:05.255Z,27.10
2023-02-11T06:27:31.903Z,24.65
2023-02-11T06:29:58.847Z,24.42
2023-02-11T06:32:43.245Z,29.00
2023-02-11T06:35:12.063Z,30.48
2023-02-11T06:37:39.429Z,23.70
2023-02-11T06:40:06.579Z,23.15
2023-02-11T06:42:33.079Z,20.73
2023-02-11T06:44:59.849Z,27.90
2023-02-11T06:47:26.380Z,20.20
2023-02-11T06:49:52.941Z,31.58
2023-02-11T06:52:19.462Z,28.15
2023-02-11T06:54:46.105Z,34.72
2023-02-11T06:57:12.662Z,29.63
2023-02-11T06:59:39.602Z,27.50
2023-02-11T07:02:06.233Z,32.72
2023-02-11T07:04:33.117Z,32.42
2023-02-11T07:06:59.716Z,31.08
2023-02-11T07:09:26.557Z,24.83
2023-02-11T07:11:53.070Z,30.23
2023-02-11T07:14:19.750Z,29.38
2023-02-11T07:16:46.438Z,29.10
2023-02-11T07:19:13.013Z,31.83
2023-02-11T07:21:40.020Z,20.35
2023-02-11T07:24:10.761Z,34.20
2023-02-11T07:26:38.526Z,23.10
2023-02-11T07:29:05.549Z,34.88
2023-02-11T07:31:32.425Z,33.90
2023-02-11T07:34:00.870Z,32.08
2023-02-11T07:36:29.229Z,26.25
2023-02-11T07:38:55.899Z,26.40
2023-02-11T07:41:23.972Z,32.92
2023-02-11T07:43:51.465Z,25.38
2023-02-11T07:46:26.778Z,31.85
2023-02-11T07:51:29.512Z,25.08
2023-02-11T07:53:58.261Z,23.95
2023-02-11T07:56:25.676Z,30.48
2023-02-11T07:58:53.050Z,31.27
2023-02-11T08:01:24.904Z,27.88
2023-02-11T08:03:52.316Z,37.55
2023-02-11T08:06:21.540Z,40.60
2023-02-11T08:08:49.190Z,35.25
2023-02-11T08:11:22.548Z,42.45
2023-02-11T08:13:50.078Z,30.30
2023-02-11T08:16:23.574Z,34.53
2023-02-11T08:18:51.665Z,28.25
2023-02-11T08:21:19.659Z,24.85
2023-02-11T08:23:47.153Z,26.23
2023-02-11T08:26:16.851Z,28.08
2023-02-11T08:28:45.732Z,31.05
2023-02-11T08:31:19.614Z,25.90
2023-02-11T08:33:47.044Z,33.92
2023-02-11T08:36:19.308Z,26.00
2023-02-11T08:38:46.887Z,27.67
2023-02-11T08:41:14.921Z,26.27
2023-02-11T08:43:43.434Z,32.13
2023-02-11T08:46:14.314Z,20.52
2023-02-11T08:48:41.459Z,25.65
2023-02-11T08:51:10.063Z,21.20
2023-02-11T08:53:37.230Z,26.70
2023-02-11T08:56:03.986Z,22.85
2023-02-11T08:58:30.587Z,30.77
2023-02-11T09:00:57.100Z,26.10
2023-02-11T09:03:24.156Z,26.55
2023-02-11T09:05:53.140Z,27.40
2023-02-11T09:08:21.057Z,26.48
2023-02-11T09:10:48.106Z,31.38
2023-02-11T09:13:16.899Z,29.40
2023-02-11T09:15:46.810Z,32.10
2023-02-11T09:18:14.232Z,28.95
2023-02-11T09:20:40.905Z,26.30
2023-02-11T09:23:07.561Z,24.17
2023-02-11T09:25:34.606Z,31.13
2023-02-11T09:28:01.306Z,22.40
2023-02-11T09:30:27.976Z,26.55
2023-02-11T09:32:54.580Z,29.88
2023-02-11T09:35:21.179Z,37.17
2023-02-11T09:37:47.748Z,37.08
2023-02-11T09:40:15.765Z,28.70
2023-02-11T09:42:50.758Z,36.75
2023-02-11T09:45:29.365Z,33.70
2023-02-11T09:47:57.958Z,30.85
2023-02-11T09:50:43.254Z,31.95
2023-02-11T09:53:25.141Z,30.83
2023-02-11T09:55:59.622Z,46.38
2023-02-11T09:58:30.232Z,30.83
2023-02-11T10:01:30.603Z,46.58
2023-02-11T10:04:25.000Z,33.80
2023-02-11T10:06:55.081Z,32.42
2023-02-11T10:09:37.311Z,38.92
2023-02-11T10:12:31.646Z,32.38
2023-02-11T10:15:07.168Z,37.60
2023-02-11T10:20:37.986Z,28.65
2023-02-11T10:23:15.207Z,36.70
2023-02-11T10:25:49.121Z,31.15
2023-02-11T10:28:24.978Z,32.38
2023-02-11T10:31:09.657Z,35.60
2023-02-11T10:34:05.408Z,36.35
2023-02-11T10:36:38.279Z,35.63
2023-02-11T10:39:23.543Z,43.33
2023-02-11T10:41:57.996Z,34.75
2023-02-11T10:44:26.949Z,37.67
2023-02-11T10:46:54.579Z,35.85
2023-02-11T10:49:35.326Z,36.25
2023-02-11T10:52:25.968Z,36.08
2023-02-11T10:55:17.656Z,34.85
2023-02-11T10:57:57.928Z,32.92
2023-02-11T11:00:37.086Z,34.25
2023-02-11T11:03:15.248Z,31.67
2023-02-11T11:06:01.987Z,27.73
2023-02-11T11:08:50.579Z,25.25
2023-02-11T11:11:25.606Z,33.38
2023-02-11T11:13:52.376Z,28.73
2023-02-11T11:16:27.997Z,36.28
2023-02-11T11:19:20.377Z,33.95
2023-02-11T11:21:55.244Z,29.90
2023-02-11T11:24:29.430Z,30.33
2023-02-11T11:27:00.816Z,31.88
2023-02-11T11:29:28.635Z,34.58
2023-02-11T11:32:00.679Z,32.00
2023-02-11T11:34:32.062Z,44.72
2023-02-11T11:37:00.566Z,33.45
2023-02-11T11:39:32.783Z,36.65
2023-02-11T11:42:25.141Z,32.08
2023-02-11T11:45:01.720Z,26.00
2023-02-11T11:47:43.559Z,34.92
2023-02-11T11:50:30.748Z,27.90
2023-02-11T11:53:04.394Z,38.58
2023-02-11T11:55:42.059Z,36.95
2023-02-11T11:58:23.040Z,32.17
2023-02-11T12:01:23.633Z,33.78
2023-02-11T12:04:03.952Z,32.58
2023-02-11T12:06:53.838Z,34.80
2023-02-11T12:09:31.397Z,31.52
2023-02-11T12:12:23.508Z,26.40
2023-02-11T12:15:08.247Z,36.55
2023-02-11T12:17:50.814Z,31.77
2023-02-11T12:20:26.014Z,31.73
2023-02-11T12:23:31.940Z,32.83
2023-02-11T12:26:12.405Z,36.33
2023-02-11T12:29:07.588Z,45.05
2023-02-11T12:31:47.097Z,30.42
2023-02-11T12:34:40.470Z,30.48
2023-02-11T12:37:24.717Z,30.10
2023-02-11T12:39:56.734Z,40.33
2023-02-11T12:42:48.333Z,33.60
2023-02-11T12:45:33.654Z,35.67
2023-02-11T12:48:38.045Z,30.13
2023-02-11T12:51:16.835Z,34.78
2023-02-11T12:54:14.221Z,36.15
2023-02-11T12:57:02.249Z,32.60
2023-02-11T13:00:08.777Z,29.73
2023-02-11T13:02:47.385Z,38.60
2023-02-11T13:05:19.621Z,35.58
2023-02-11T13:07:47.991Z,35.05
2023-02-11T13:10:15.423Z,32.88
2023-02-11T13:13:05.162Z,31.77
2023-02-11T13:15:32.889Z,35.45
2023-02-11T13:18:09.038Z,38.47
2023-02-11T13:20:58.843Z,36.55
2023-02-11T13:23:50.265Z,31.38
2023-02-11T13:26:25.016Z,27.55
2023-02-11T13:28:56.216Z,30.05
2023-02-11T13:31:26.943Z,28.15
2023-02-11T13:33:53.781Z,30.60
2023-02-11T13:36:23.137Z,27.45
2023-02-11T13:38:56.483Z,38.25
2023-02-11T13:41:28.389Z,29.73
2023-02-11T13:44:08.600Z,31.33
2023-02-11T13:46:57.186Z,28.42
2023-02-11T13:49:26.222Z,27.20
2023-02-11T13:51:54.232Z,31.73
2023-02-11T13:54:34.525Z,28.25
2023-02-11T13:57:19.446Z,22.48
2023-02-11T13:59:55.610Z,28.27
2023-02-11T14:02:50.008Z,23.90
2023-02-11T14:05:51.689Z,27.85
2023-02-11T14:08:40.167Z,26.98
2023-02-11T14:11:32.482Z,27.30
2023-02-11T14:14:08.134Z,31.23
2023-02-11T14:16:38.257Z,28.85
2023-02-11T14:19:06.346Z,26.33
2023-02-11T14:21:39.646Z,27.02
2023-02-11T14:24:06.905Z,25.33
2023-02-11T14:27:01.589Z,20.65
2023-02-11T14:29:36.126Z,19.13
2023-02-11T14:32:08.857Z,24.45
2023-02-11T14:35:00.509Z,21.20
2023-02-11T14:37:49.338Z,23.70
2023-02-11T14:40:34.785Z,19.55
2023-02-11T14:43:20.868Z,24.83
2023-02-11T14:45:55.084Z,24.55
2023-02-11T14:48:29.368Z,21.25
2023-02-11T14:51:03.467Z,23.75
2023-02-11T14:53:33.105Z,24.10
2023-02-11T14:56:00.112Z,20.20
2023-02-11T14:58:32.170Z,22.45
2023-02-11T15:01:00.677Z,21.63
2023-02-11T15:03:38.985Z,25.35
2023-02-11T15:06:27.929Z,17.20
2023-02-11T15:09:02.594Z,27.20
2023-02-11T15:11:34.057Z,22.30
2023-02-11T15:14:26.998Z,19.55
2023-02-11T15:16:58.696Z,18.45
2023-02-11T15:19:38.425Z,21.73
2023-02-11T15:22:21.776Z,20.70
2023-02-11T15:25:07.714Z,22.35
2023-02-11T15:30:23.764Z,20.17
2023-02-11T15:32:53.756Z,20.73
2023-02-11T15:35:20.388Z,18.05
2023-02-11T15:37:48.951Z,22.23
2023-02-11T15:40:24.753Z,18.65
2023-02-11T15:43:06.320Z,19.02
2023-02-11T15:45:34.449Z,24.40
2023-02-11T15:48:20.125Z,28.80
2023-02-11T15:50:58.541Z,17.08
2023-02-11T15:53:43.179Z,21.45
2023-02-11T15:56:26.583Z,25.67
2023-02-11T15:58:56.701Z,22.00
2023-02-11T16:01:35.608Z,15.48
2023-02-11T16:04:05.467Z,20.45
2023-02-11T16:06:40.507Z,23.05
2023-02-11T16:09:11.047Z,20.20
2023-02-11T16:11:57.892Z,18.02
2023-02-11T16:14:39.157Z,23.58
2023-02-11T16:17:10.918Z,24.10
2023-02-11T16:19:45.128Z,19.15
2023-02-11T16:22:17.587Z,17.58
2023-02-11T16:24:47.506Z,21.73
2023-02-11T16:27:20.211Z,24.00
2023-02-11T16:29:49.333Z,18.65
2023-02-11T16:32:25.603Z,27.73
2023-02-11T16:34:53.797Z,22.67
2023-02-11T16:37:20.368Z,21.33
2023-02-11T16:39:47.097Z,29.23
2023-02-11T16:42:13.624Z,23.25
2023-02-11T16:44:40.421Z,25.67
2023-02-11T16:47:17.444Z,22.15
2023-02-11T16:49:44.182Z,28.38
2023-02-11T16:52:16.645Z,29.52
2023-02-11T16:54:43.251Z,25.15
2023-02-11T16:57:18.891Z,27.90
2023-02-11T16:59:46.502Z,34.33
2023-02-11T17:02:18.426Z,20.88
2023-02-11T17:04:45.162Z,28.25
2023-02-11T17:07:12.322Z,28.27
2023-02-11T17:09:39.251Z,29.45
2023-02-11T17:12:06.162Z,28.55
2023-02-11T17:14:32.784Z,24.75
2023-02-11T17:16:59.325Z,29.48
2023-02-11T17:19:26.423Z,25.30
2023-02-11T17:21:53.572Z,23.23
2023-02-11T17:24:21.568Z,27.35
2023-02-11T17:26:48.957Z,28.77
2023-02-11T17:29:19.606Z,33.13
2023-02-11T17:31:46.283Z,29.88
2023-02-11T17:34:12.950Z,45.13
2023-02-11T17:36:41.273Z,33.83
2023-02-11T17:39:08.846Z,35.40
2023-02-11T17:41:39.746Z,36.92
2023-02-11T17:44:08.412Z,36.05
2023-02-11T17:46:35.725Z,36.35
2023-02-11T17:49:03.289Z,35.60
2023-02-11T17:51:35.326Z,41.10
2023-02-11T17:54:06.385Z,33.92
2023-02-11T17:56:34.430Z,39.92
2023-02-11T17:59:02.352Z,40.85
2023-02-11T18:01:29.981Z,37.78
2023-02-11T18:03:56.506Z,43.03
2023-02-11T18:06:23.241Z,35.95
2023-02-11T18:08:49.863Z,34.83
2023-02-11T18:11:16.824Z,41.80
2023-02-11T18:13:45.128Z,40.30
2023-02-11T18:16:15.735Z,40.67
2023-02-11T18:18:45.381Z,45.25
2023-02-11T18:21:15.765Z,40.22
2023-02-11T18:23:43.073Z,33.35
2023-02-11T18:26:11.956Z,35.92
2023-02-11T18:28:39.490Z,34.13
2023-02-11T18:31:07.824Z,42.25
2023-02-11T18:33:36.389Z,43.60
2023-02-11T18:36:07.826Z,35.67
2023-02-11T18:38:35.292Z,41.35
2023-02-11T18:41:02.124Z,28.63
2023-02-11T18:43:31.656Z,33.80
2023-02-11T18:45:58.311Z,35.38
2023-02-11T18:48:26.981Z,34.60
2023-02-11T18:50:54.534Z,36.25
2023-02-11T18:53:22.082Z,41.92
2023-02-11T18:55:49.058Z,35.10
2023-02-11T18:58:15.797Z,38.35
2023-02-11T19:00:45.586Z,36.67
2023-02-11T19:03:12.679Z,29.90
2023-02-11T19:05:47.493Z,32.42
2023-02-11T19:08:15.293Z,40.05
2023-02-11T19:10:44.055Z,32.13
2023-02-11T19:13:11.552Z,31.63
2023-02-11T19:15:42.762Z,38.65
2023-02-11T19:18:10.571Z,37.47
2023-02-11T19:20:42.210Z,27.25
2023-02-11T19:23:09.427Z,31.35
2023-02-11T19:25:36.034Z,37.47
2023-02-11T19:28:03.326Z,44.72
2023-02-11T19:30:30.092Z,38.05
2023-02-11T19:32:57.557Z,34.17
2023-02-11T19:35:25.195Z,32.78
2023-02-11T19:37:52.071Z,36.75
2023-02-11T19:40:21.041Z,35.63
2023-02-11T19:42:47.680Z,38.20
2023-02-11T19:45:14.291Z,36.22
2023-02-11T19:47:40.954Z,31.98
2023-02-11T19:50:08.716Z,30.95
2023-02-11T19:52:38.219Z,35.53
2023-02-11T19:55:05.307Z,31.33
2023-02-11T19:57:31.943Z,30.98
2023-02-11T19:59:58.697Z,34.92
2023-02-11T20:02:25.394Z,40.55
2023-02-11T20:04:51.911Z,36.97
2023-02-11T20:07:18.629Z,40.28
2023-02-11T20:09:45.362Z,43.10
2023-02-11T20:12:12.155Z,36.17
2023-02-11T20:14:38.986Z,43.50
2023-02-11T20:17:05.558Z,37.20
2023-02-11T20:19:32.290Z,33.78
2023-02-11T20:21:59.010Z,41.67
2023-02-11T20:24:25.658Z,45.08
2023-02-11T20:26:55.382Z,36.05
2023-02-11T20:29:23.517Z,41.25
2023-02-11T20:31:50.951Z,34.92
2023-02-11T20:34:18.664Z,39.88
2023-02-11T20:36:51.534Z,37.95
2023-02-11T20:39:21.526Z,38.67
2023-02-11T20:41:48.424Z,36.92
2023-02-11T20:44:15.148Z,39.35
2023-02-11T20:46:48.155Z,42.08
2023-02-11T20:49:18.683Z,38.58
2023-02-11T20:51:46.292Z,32.92
2023-02-11T20:54:16.082Z,40.72
2023-02-11T20:56:44.508Z,40.67
2023-02-11T20:59:13.895Z,36.70
2023-02-11T21:01:43.969Z,42.72
2023-02-11T21:04:13.279Z,40.05
2023-02-11T21:06:45.206Z,42.63
2023-02-11T21:09:14.912Z,32.85
2023-02-11T21:11:42.425Z,39.40
2023-02-11T21:14:10.201Z,47.05
2023-02-11T21:16:36.822Z,43.47
2023-02-11T21:19:04.268Z,43.13
2023-02-11T21:21:35.772Z,35.45
2023-02-11T21:24:02.561Z,39.78
2023-02-11T21:26:29.860Z,34.30
2023-02-11T21:28:56.473Z,41.60
2023-02-11T21:31:30.488Z,43.30
2023-02-11T21:33:59.371Z,34.92
2023-02-11T21:36:27.465Z,39.15
2023-02-11T21:38:54.537Z,42.10
2023-02-11T21:41:22.340Z,43.40
2023-02-11T21:43:49.598Z,43.85
2023-02-11T21:46:18.293Z,39.30
2023-02-11T21:48:45.798Z,42.80
2023-02-11T21:51:19.714Z,35.85
2023-02-11T21:53:46.916Z,45.47
2023-02-11T21:56:16.382Z,38.75
2023-02-11T21:58:45.745Z,36.30
2023-02-11T22:01:19.588Z,37.38
2023-02-11T22:03:46.845Z,44.33
2023-02-11T22:06:21.240Z,34.70
2023-02-11T22:08:50.978Z,32.60
2023-02-11T22:11:18.634Z,32.40
2023-02-11T22:13:46.264Z,37.13
2023-02-11T22:16:16.556Z,38.47
2023-02-11T22:18:46.593Z,33.33
2023-02-11T22:21:16.539Z,32.03
2023-02-11T22:23:44.058Z,32.10
2023-02-11T22:26:13.606Z,35.70
2023-02-11T22:28:40.985Z,31.52
2023-02-11T22:31:11.806Z,34.88
2023-02-11T22:33:38.549Z,36.75
2023-02-11T22:36:07.954Z,35.28
2023-02-11T22:38:35.087Z,34.30
2023-02-11T22:41:06.745Z,34.38
2023-02-11T22:43:33.796Z,31.40
2023-02-11T22:46:01.856Z,36.92
2023-02-11T22:48:29.038Z,27.60
2023-02-11T22:50:55.732Z,35.85
2023-02-11T22:53:25.473Z,32.00
2023-02-11T22:55:52.610Z,34.40
2023-02-11T22:58:19.580Z,28.10
2023-02-11T23:00:46.169Z,32.95
2023-02-11T23:03:12.901Z,31.38
2023-02-11T23:05:41.210Z,30.02
2023-02-11T23:08:10.150Z,28.15
2023-02-11T23:10:38.521Z,36.00
2023-02-11T23:13:06.991Z,26.88
2023-02-11T23:15:34.146Z,36.08
2023-02-11T23:18:01.086Z,32.20
2023-02-11T23:20:27.769Z,27.02
2023-02-11T23:22:54.433Z,31.17
2023-02-11T23:25:20.997Z,34.03
2023-02-11T23:27:47.783Z,31.60
2023-02-11T23:30:14.596Z,28.52
2023-02-11T23:32:41.499Z,29.70
2023-02-11T23:35:08.552Z,29.30
2023-02-11T23:37:35.510Z,31.20
2023-02-11T23:40:02.121Z,27.15
2023-02-11T23:42:29.142Z,27.80
2023-02-11T23:44:55.965Z,27.90
2023-02-11T23:47:22.775Z,26.15
2023-02-11T23:49:49.450Z,31.55
2023-02-11T23:52:16.441Z,28.52
2023-02-11T23:54:43.326Z,31.42
2023-02-11T23:57:10.019Z,22.88
2023-02-11T23:59:36.727Z,26.45
